Pagrindinis puslapis
METAR-TAF:

METAR-TAF

Oro uostai :

Amanas, Jordanija

platuma: 31-59N, ilguma: 035-59E, Aukštis: 767 m

Dabartinis oras

Ataskaita buvo paskelbta 15 minutes, ne 14:00 UTC
Vėjas 13 kt iš Vakarų/Šiaurės Vakarų
Temperatūra 26°C
Drėgmė 14%
Slėgis 1012 hPa
Matomumas: 5000 m
migla,

METAR: OJAM 201400Z 29013KT 5000 HZ NSC 26/M04 Q1012 NOSIG

Laikas: 17:15 (14:15 UTC)

Prognozė

Ataskaita buvo paskelbta 3 valandos ir 15 minutes, ne 11:00 UTC
Prognozė galioja nuo 20 metu 12 UTC su 21 metu 18 UTC
Vėjas 8 kt iš Vakarų/Šiaurės Vakarų
Matomumas: 5000 m
migla
Tikimybė 40% :
Laikinai
nuo 20 metu 12 UTC su 20 metu 18 UTC
Vėjas 16 kt iš Vakarų/Šiaurės Vakarų
Matomumas: 4000 m
Dulkes pustymas,

TAF: OJAM 201100Z 2012/2118 29008KT 5000 HZ NSC PROB40 TEMPO 2012/2018 29016KT 4000 BLDU

Orai ataskaitas ir orų prognozės (METAR, TAF).

turimą stotys yra geltonos ir raudonos taškus žemėlapyje.

Perkelti pele per norėdami pamatyti stoties vardą.

Tada spustelėkite, norėdami matyti oro stebėjimo ir prognozės.

Norėdami pakeisti žemėlapį: spustelėkite ant žalios mygtukų su juodo kryžiaus žemyn,; žalią mygtuką su brūkšneliu, jei norite nutolinti; arba žalių rodyklių gretimoms žemėlapius.


METAR-TAF: